createdAt,value
2022-08-22T00:00:16.638Z,16.8
2022-08-22T00:02:55.385Z,17.4
2022-08-22T00:03:00.886Z,20
2022-08-22T00:03:03.566Z,20.6
2022-08-22T00:03:08.734Z,19.7
2022-08-22T00:03:11.173Z,19.2
2022-08-22T00:03:15.187Z,17.3
2022-08-22T00:06:28.489Z,16.8
2022-08-22T00:10:36.401Z,16.9
2022-08-22T00:14:47.130Z,16.8
2022-08-22T00:17:54.456Z,16.9
2022-08-22T00:24:06.320Z,16.9
2022-08-22T00:32:24.962Z,16.9
2022-08-22T00:38:36.834Z,17
2022-08-22T00:42:49.079Z,16.9
2022-08-22T00:46:56.953Z,16.9
2022-08-22T00:51:04.865Z,16.9
2022-08-22T00:53:08.801Z,16.9
2022-08-22T00:55:15.583Z,16.8
2022-08-22T00:57:19.542Z,16.8
2022-08-22T00:59:24.205Z,16.9
2022-08-22T01:01:27.499Z,16.9
2022-08-22T01:07:39.320Z,16.9
2022-08-22T01:09:46.101Z,16.8
2022-08-22T01:23:16.043Z,16.7
2022-08-22T01:37:46.523Z,16.8
2022-08-22T01:39:50.528Z,16.8
2022-08-22T01:44:00.344Z,16.9
2022-08-22T01:48:06.306Z,16.8
2022-08-22T01:50:10.239Z,16.7
2022-08-22T01:52:19.677Z,16.7
2022-08-22T01:54:20.960Z,16.7
2022-08-22T01:56:24.923Z,16.7
2022-08-22T01:58:28.874Z,16.6
2022-08-22T02:00:35.385Z,16.6
2022-08-22T02:02:36.791Z,16.6
2022-08-22T02:04:40.735Z,16.5
2022-08-22T02:06:47.520Z,16.5
2022-08-22T02:08:51.463Z,16.6
2022-08-22T02:10:56.249Z,16.5
2022-08-22T02:17:27.202Z,16.6
2022-08-22T02:19:33.995Z,16.5
2022-08-22T02:21:37.946Z,16.5
2022-08-22T02:27:49.885Z,16.5
2022-08-22T02:29:53.850Z,16.5
2022-08-22T02:31:57.779Z,16.5
2022-08-22T02:36:08.509Z,16.4
2022-08-22T02:38:12.477Z,16.4
2022-08-22T02:40:16.553Z,16.4
2022-08-22T02:42:20.398Z,16.4
2022-08-22T02:44:24.327Z,16.4
2022-08-22T02:46:28.286Z,16.4
2022-08-22T02:50:39.003Z,16.3
2022-08-22T02:52:42.931Z,16.4
2022-08-22T02:54:46.898Z,16.3
2022-08-22T02:56:50.843Z,16.4
2022-08-22T02:58:57.012Z,16.3
2022-08-22T03:00:58.831Z,16.3
2022-08-22T03:03:05.527Z,16.2
2022-08-22T03:05:09.516Z,16.3
2022-08-22T03:08:16.810Z,16.2
2022-08-22T03:10:20.771Z,16.2
2022-08-22T03:18:39.405Z,16.2
2022-08-22T03:22:47.340Z,16.2
2022-08-22T03:24:51.296Z,16.2
2022-08-22T03:28:59.779Z,16.2
2022-08-22T03:31:05.975Z,16.1
2022-08-22T03:33:09.916Z,16.2
2022-08-22T03:37:17.875Z,16.2
2022-08-22T03:41:25.740Z,16.1
2022-08-22T03:43:29.681Z,16.2
2022-08-22T03:45:36.475Z,16.2
2022-08-22T03:47:40.418Z,16.2
2022-08-22T03:49:44.359Z,16.2
2022-08-22T03:51:48.316Z,16.2
2022-08-22T03:55:56.195Z,16.3
2022-08-22T04:00:06.958Z,16.2
2022-08-22T04:02:31.521Z,16.3
2022-08-22T04:04:14.873Z,16.2
2022-08-22T04:05:18.252Z,16.2
2022-08-22T04:07:32.185Z,16.2
2022-08-22T04:09:26.154Z,16.2
2022-08-22T04:11:30.117Z,16.2
2022-08-22T04:13:36.877Z,16.2
2022-08-22T04:15:40.830Z,16.2
2022-08-22T04:17:44.788Z,16.2
2022-08-22T04:19:48.741Z,16.2
2022-08-22T04:23:56.663Z,16.1
2022-08-22T04:26:00.611Z,16.1
2022-08-22T04:28:07.395Z,16.1
2022-08-22T04:30:11.351Z,16.1
2022-08-22T04:34:19.231Z,16.1
2022-08-22T04:36:23.191Z,16.1
2022-08-22T04:38:27.139Z,16.1
2022-08-22T04:40:31.031Z,16.1
2022-08-22T04:42:37.847Z,16.2
2022-08-22T04:48:49.699Z,16.3
2022-08-22T04:52:57.604Z,16.4
2022-08-22T04:55:01.533Z,16.3
2022-08-22T04:57:08.313Z,16.3
2022-08-22T05:01:16.230Z,16.3
2022-08-22T05:06:27.484Z,16.3
2022-08-22T05:10:38.208Z,16.2
2022-08-22T05:14:46.112Z,16.3
2022-08-22T05:16:50.057Z,16.3
2022-08-22T05:18:53.992Z,16.2
2022-08-22T05:20:57.967Z,16.2
2022-08-22T05:25:08.688Z,16.2
2022-08-22T05:27:12.647Z,16.2
2022-08-22T05:29:16.587Z,16.2
2022-08-22T05:31:23.217Z,16.2
2022-08-22T05:33:24.487Z,16.2
2022-08-22T05:35:28.454Z,16.2
2022-08-22T05:37:32.387Z,16.2
2022-08-22T05:39:39.192Z,16.2
2022-08-22T05:41:43.099Z,16.2
2022-08-22T05:43:47.075Z,16.3
2022-08-22T05:49:58.878Z,16.3
2022-08-22T05:52:02.839Z,16.4
2022-08-22T05:54:09.607Z,16.5
2022-08-22T05:56:13.558Z,16.5
2022-08-22T05:58:17.514Z,16.5
2022-08-22T06:02:39.631Z,16.5
2022-08-22T06:06:50.346Z,16.6
2022-08-22T06:15:12.061Z,16.7
2022-08-22T06:21:20.851Z,16.9
2022-08-22T06:25:28.748Z,17
2022-08-22T06:29:36.638Z,16.9
2022-08-22T06:31:40.587Z,17
2022-08-22T06:33:45.916Z,17.1
2022-08-22T06:35:51.309Z,17.2
2022-08-22T06:37:55.288Z,17.2
2022-08-22T06:40:00.836Z,17.3
2022-08-22T06:44:08.606Z,17.5
2022-08-22T06:46:12.554Z,17.7
2022-08-22T06:48:16.486Z,17.8
2022-08-22T06:50:23.268Z,18
2022-08-22T06:52:27.230Z,18.1
2022-08-22T06:54:34.271Z,18.3
2022-08-22T07:01:46.535Z,18.6
2022-08-22T07:05:57.139Z,18.8
2022-08-22T07:08:01.238Z,18.9
2022-08-22T07:10:05.032Z,19.1
2022-08-22T07:12:08.971Z,19.1
2022-08-22T07:14:12.927Z,19.1
2022-08-22T07:16:16.865Z,19.3
2022-08-22T07:18:23.630Z,19.7
2022-08-22T07:20:27.585Z,20
2022-08-22T07:22:31.537Z,20.3
2022-08-22T07:26:39.407Z,20.6
2022-08-22T07:28:51.301Z,20.6
2022-08-22T07:30:47.287Z,20.7
2022-08-22T07:32:54.049Z,20.3
2022-08-22T07:34:57.983Z,20.2
2022-08-22T07:39:05.902Z,20.6
2022-08-22T07:41:09.808Z,20.6
2022-08-22T07:43:13.753Z,20.5
2022-08-22T07:45:17.660Z,20.8
2022-08-22T07:49:28.372Z,20.9
2022-08-22T07:51:32.293Z,21.1
2022-08-22T07:56:43.528Z,20.9
2022-08-22T07:58:47.437Z,20.7
2022-08-22T08:09:09.827Z,23.2
2022-08-22T08:11:13.737Z,23.3
2022-08-22T08:13:17.624Z,23.2
2022-08-22T08:15:24.367Z,23
2022-08-22T08:17:31.994Z,22.8
2022-08-22T08:19:32.115Z,23.1
2022-08-22T08:21:35.989Z,22.6
2022-08-22T08:23:39.894Z,23.6
2022-08-22T08:25:43.721Z,23.9
2022-08-22T08:27:48.162Z,23.9
2022-08-22T08:29:54.249Z,24.5
2022-08-22T08:31:58.060Z,24
2022-08-22T08:34:01.892Z,23.2
2022-08-22T08:36:05.726Z,23.7
2022-08-22T08:38:09.534Z,23.7
2022-08-22T08:40:13.358Z,23.3
2022-08-22T08:42:17.134Z,23.3
2022-08-22T08:44:23.800Z,23.2
2022-08-22T08:46:27.602Z,23.7
2022-08-22T08:48:31.365Z,23.7
2022-08-22T08:49:34.700Z,23.9
2022-08-22T08:51:38.488Z,24.4
2022-08-22T08:53:43.215Z,24.7
2022-08-22T08:55:46.033Z,24.2
2022-08-22T08:57:52.686Z,24
2022-08-22T09:02:00.229Z,24.4
2022-08-22T09:04:04.025Z,24.6
2022-08-22T09:06:07.738Z,24.9
2022-08-22T09:10:15.243Z,25.6
2022-08-22T09:12:21.879Z,24
2022-08-22T09:14:26.329Z,23.7
2022-08-22T09:16:29.376Z,24.1
2022-08-22T09:18:33.169Z,24.4
2022-08-22T09:20:36.919Z,24.4
2022-08-22T09:24:44.443Z,24.9
2022-08-22T09:26:51.077Z,25.1
2022-08-22T09:28:54.829Z,25.1
2022-08-22T09:30:58.608Z,24.4
2022-08-22T09:33:02.355Z,24.9
2022-08-22T09:35:06.145Z,25.6
2022-08-22T09:39:13.657Z,25.8
2022-08-22T09:40:15.393Z,25.1
2022-08-22T09:41:20.304Z,25.4
2022-08-22T09:43:24.086Z,25.1
2022-08-22T09:45:27.849Z,25
2022-08-22T09:47:51.611Z,25.3
2022-08-22T09:49:55.390Z,25.1
2022-08-22T09:54:05.836Z,24.9
2022-08-22T09:56:11.725Z,25.1
2022-08-22T09:58:13.395Z,24.8
2022-08-22T10:00:17.193Z,24.6
2022-08-22T10:02:20.988Z,25
2022-08-22T10:06:28.578Z,25.5
2022-08-22T10:08:35.234Z,25.4
2022-08-22T10:10:39.049Z,25.9
2022-08-22T10:12:44.778Z,25.4
2022-08-22T10:14:50.470Z,25.7
2022-08-22T10:16:50.392Z,25.8
2022-08-22T10:18:55.451Z,26.1
2022-08-22T10:20:57.974Z,26.9
2022-08-22T10:27:12.160Z,26
2022-08-22T10:29:15.932Z,25.8
2022-08-22T10:31:19.688Z,25.5
2022-08-22T10:33:23.483Z,25.6
2022-08-22T10:35:27.249Z,25.9
2022-08-22T10:37:33.902Z,26.9
2022-08-22T10:39:37.682Z,26.6
2022-08-22T10:42:44.726Z,26.3
2022-08-22T10:44:48.521Z,27
2022-08-22T10:46:52.238Z,28.4
2022-08-22T10:48:56.001Z,27.7
2022-08-22T10:51:02.631Z,26.8
2022-08-22T10:53:06.381Z,26.8
2022-08-22T10:57:13.884Z,26.7
2022-08-22T10:59:17.624Z,27.5
2022-08-22T11:03:25.198Z,26.4
2022-08-22T11:11:43.061Z,26.9
2022-08-22T11:13:46.822Z,26.8
2022-08-22T11:15:51.278Z,27.4
2022-08-22T11:17:54.526Z,26.7
2022-08-22T11:20:01.003Z,25.9
2022-08-22T11:22:04.792Z,25.4
2022-08-22T11:24:08.512Z,25.4
2022-08-22T11:26:12.269Z,25.5
2022-08-22T11:28:16.071Z,25.9
2022-08-22T11:30:19.846Z,26.9
2022-08-22T11:32:23.610Z,27
2022-08-22T11:34:30.253Z,27.4
2022-08-22T11:36:34.033Z,27.5
2022-08-22T11:38:37.778Z,29
2022-08-22T11:39:41.147Z,29.9
2022-08-22T11:41:44.853Z,29.2
2022-08-22T11:43:48.609Z,29
2022-08-22T11:45:52.385Z,28.7
2022-08-22T11:47:58.985Z,27.5
2022-08-22T11:50:02.741Z,27.5
2022-08-22T11:52:06.446Z,26.4
2022-08-22T11:54:10.182Z,26
2022-08-22T11:56:13.966Z,26.1
2022-08-22T11:58:17.684Z,26.8
2022-08-22T12:00:21.433Z,27.5
2022-08-22T12:02:28.147Z,28.7
2022-08-22T12:04:31.810Z,28.8
2022-08-22T12:06:35.564Z,28.3
2022-08-22T12:08:39.320Z,28.3
2022-08-22T12:10:43.080Z,28.6
2022-08-22T12:12:46.834Z,28.5
2022-08-22T12:14:50.575Z,27.7
2022-08-22T12:16:57.212Z,27.1
2022-08-22T12:19:00.965Z,27.5
2022-08-22T12:21:04.717Z,27.6
2022-08-22T12:25:12.236Z,26.1
2022-08-22T12:27:18.428Z,26.5
2022-08-22T12:29:19.763Z,26.7
2022-08-22T12:31:26.428Z,27.7
2022-08-22T12:33:30.249Z,28.5
2022-08-22T12:40:46.276Z,27.1
2022-08-22T12:42:50.052Z,28
2022-08-22T12:44:56.690Z,28.4
2022-08-22T12:49:07.475Z,27.4
2022-08-22T12:51:17.308Z,27.7
2022-08-22T12:55:15.557Z,27.7
2022-08-22T12:59:25.932Z,28.8
2022-08-22T13:03:33.423Z,29.3
2022-08-22T13:07:40.938Z,29.5
2022-08-22T13:09:44.686Z,29.6
2022-08-22T13:11:48.447Z,28.5
2022-08-22T13:13:56.424Z,28.7
2022-08-22T13:15:58.827Z,28.9
2022-08-22T13:18:19.201Z,29.8
2022-08-22T13:24:16.945Z,29.5
2022-08-22T13:26:32.205Z,28.8
2022-08-22T13:28:24.181Z,28.5
2022-08-22T13:30:27.883Z,28.2
2022-08-22T13:32:31.626Z,28.3
2022-08-22T13:35:01.087Z,28.4
2022-08-22T13:37:04.858Z,28.4
2022-08-22T13:39:08.603Z,28.1
2022-08-22T13:41:15.219Z,27.6
2022-08-22T13:43:18.954Z,28.1
2022-08-22T13:45:22.735Z,28.2
2022-08-22T13:47:26.438Z,27.3
2022-08-22T13:49:30.233Z,27.2
2022-08-22T13:51:33.975Z,27.4
2022-08-22T13:53:37.744Z,27.5
2022-08-22T13:55:44.382Z,27.8
2022-08-22T13:57:51.920Z,27.7
2022-08-22T13:59:54.849Z,27.1
2022-08-22T14:01:55.714Z,26.7
2022-08-22T14:03:59.536Z,26.7
2022-08-22T14:06:32.426Z,26.8
2022-08-22T14:08:13.031Z,27.3
2022-08-22T14:10:15.337Z,26.4
2022-08-22T14:12:17.431Z,26.4
2022-08-22T14:14:21.206Z,26.5
2022-08-22T14:16:25.000Z,26.8
2022-08-22T14:18:30.503Z,27
2022-08-22T14:20:33.755Z,26.8
2022-08-22T14:22:36.369Z,26.6
2022-08-22T14:26:47.505Z,26.6
2022-08-22T14:28:50.635Z,26.8
2022-08-22T14:29:53.953Z,26.6
2022-08-22T14:31:57.760Z,26.4
2022-08-22T14:34:01.583Z,26.9
2022-08-22T14:36:05.381Z,26.9
2022-08-22T14:38:17.356Z,26.8
2022-08-22T14:40:15.954Z,26.9
2022-08-22T14:42:19.659Z,26.7
2022-08-22T14:44:23.490Z,27
2022-08-22T14:46:27.285Z,27.4
2022-08-22T14:50:34.888Z,27.5
2022-08-22T14:54:45.361Z,27
2022-08-22T15:00:56.792Z,26.7
2022-08-22T15:11:18.660Z,26
2022-08-22T15:13:25.258Z,26.1
2022-08-22T15:15:26.284Z,26.3
2022-08-22T15:17:30.090Z,26.6
2022-08-22T15:19:33.900Z,26.9
2022-08-22T15:21:41.394Z,26.8
2022-08-22T15:25:48.208Z,26.6
2022-08-22T15:26:51.553Z,26.4
2022-08-22T15:28:55.348Z,26.4
2022-08-22T15:30:59.169Z,26.4
2022-08-22T15:33:03.019Z,26.4
2022-08-22T15:35:09.655Z,26.4
2022-08-22T15:37:16.152Z,26.3
2022-08-22T15:39:17.268Z,26.8
2022-08-22T15:41:21.106Z,27.3
2022-08-22T15:43:24.923Z,27.4
2022-08-22T15:45:28.737Z,27.7
2022-08-22T15:47:34.838Z,28.1
2022-08-22T15:49:39.231Z,27.6
2022-08-22T15:51:43.033Z,27.6
2022-08-22T15:53:46.858Z,27.1
2022-08-22T15:55:50.663Z,27.3
2022-08-22T15:57:54.463Z,27.2
2022-08-22T15:59:58.270Z,27
2022-08-22T16:02:04.933Z,26.9
2022-08-22T16:04:08.748Z,26.9
2022-08-22T16:06:12.563Z,27.1
2022-08-22T16:08:16.369Z,27.3
2022-08-22T16:10:20.172Z,27.1
2022-08-22T16:12:23.968Z,27.1
2022-08-22T16:14:27.756Z,27
2022-08-22T16:16:31.558Z,27.1
2022-08-22T16:18:38.242Z,27
2022-08-22T16:20:42.038Z,27.1
2022-08-22T16:22:47.391Z,27
2022-08-22T16:23:49.715Z,26.9
2022-08-22T16:30:00.608Z,26.7
2022-08-22T16:34:11.082Z,26.8
2022-08-22T16:36:14.902Z,26.9
2022-08-22T16:38:18.727Z,26.8
2022-08-22T16:40:22.667Z,26.8
2022-08-22T16:42:26.382Z,26.4
2022-08-22T16:44:30.201Z,26.1
2022-08-22T16:48:40.722Z,26.1
2022-08-22T16:50:44.552Z,26
2022-08-22T16:52:48.401Z,26
2022-08-22T16:54:52.216Z,26
2022-08-22T16:56:56.047Z,25.9
2022-08-22T16:59:09.929Z,26.1
2022-08-22T17:03:10.446Z,26.1
2022-08-22T17:05:14.257Z,25.8
2022-08-22T17:07:18.127Z,25.9
2022-08-22T17:09:21.960Z,26.1
2022-08-22T17:11:25.798Z,26.5
2022-08-22T17:13:29.634Z,27
2022-08-22T17:17:40.180Z,26.7
2022-08-22T17:19:44.045Z,26.5
2022-08-22T17:22:13.646Z,27.6
2022-08-22T17:24:31.699Z,27.6
2022-08-22T17:26:21.288Z,27.6
2022-08-22T17:28:31.189Z,26.4
2022-08-22T17:34:39.506Z,26.3
2022-08-22T17:36:43.332Z,27.4
2022-08-22T17:38:47.167Z,27.4
2022-08-22T17:40:51.002Z,26.4
2022-08-22T17:42:57.690Z,25.6
2022-08-22T17:45:01.531Z,25.5
2022-08-22T17:49:09.237Z,25.3
2022-08-22T17:51:13.058Z,25.3
2022-08-22T17:55:20.760Z,25.1
2022-08-22T17:57:27.464Z,25.1
2022-08-22T17:59:31.336Z,25.1
2022-08-22T18:01:35.264Z,25.1
2022-08-22T18:09:50.713Z,24.7
2022-08-22T18:11:57.424Z,24.6
2022-08-22T18:17:08.582Z,24.6
2022-08-22T18:19:12.436Z,24.6
2022-08-22T18:21:16.301Z,24.5
2022-08-22T18:23:21.544Z,24.5
2022-08-22T18:25:26.941Z,24.5
2022-08-22T18:27:35.280Z,24.4
2022-08-22T18:29:34.732Z,24.4
2022-08-22T18:31:38.887Z,24.4
2022-08-22T18:33:43.988Z,24.2
2022-08-22T18:35:49.961Z,24.2
2022-08-22T18:37:51.713Z,24.1
2022-08-22T18:39:58.507Z,24.1
2022-08-22T18:42:02.379Z,24.1
2022-08-22T18:44:06.251Z,24
2022-08-22T18:46:10.145Z,24
2022-08-22T18:48:14.035Z,24
2022-08-22T18:50:17.923Z,23.9
2022-08-22T18:52:21.821Z,23.9
2022-08-22T18:54:28.569Z,23.8
2022-08-22T19:00:40.268Z,23.7
2022-08-22T19:02:47.105Z,23.6
2022-08-22T19:04:48.064Z,23.4
2022-08-22T19:06:51.985Z,23.3
2022-08-22T19:08:58.721Z,23.2
2022-08-22T19:11:02.610Z,23.2
2022-08-22T19:13:06.540Z,23.1
2022-08-22T19:14:09.904Z,23.1
2022-08-22T19:16:13.809Z,23
2022-08-22T19:18:17.726Z,22.9
2022-08-22T19:20:21.614Z,22.8
2022-08-22T19:22:28.378Z,22.7
2022-08-22T19:26:36.169Z,22.6
2022-08-22T19:28:40.099Z,22.5
2022-08-22T19:30:43.989Z,22.5
2022-08-22T19:32:47.908Z,22.4
2022-08-22T19:34:51.823Z,22.4
2022-08-22T19:39:02.498Z,22.4
2022-08-22T19:43:10.316Z,22.1
2022-08-22T19:45:14.218Z,22.1
2022-08-22T19:47:18.137Z,22.1
2022-08-22T19:51:28.819Z,22
2022-08-22T19:53:32.717Z,22
2022-08-22T19:57:40.601Z,21.9
2022-08-22T19:59:50.481Z,21.9
2022-08-22T20:01:48.409Z,21.8
2022-08-22T20:03:52.332Z,21.8
2022-08-22T20:06:03.368Z,21.8
2022-08-22T20:08:03.023Z,21.7
2022-08-22T20:10:06.944Z,21.6
2022-08-22T20:11:10.311Z,21.6
2022-08-22T20:13:14.254Z,21.6
2022-08-22T20:15:18.172Z,21.6
2022-08-22T20:17:22.092Z,21.6
2022-08-22T20:19:28.872Z,21.6
2022-08-22T20:21:38.725Z,21.6
2022-08-22T20:23:36.711Z,21.6
2022-08-22T20:25:42.730Z,21.5
2022-08-22T20:29:48.500Z,21.5
2022-08-22T20:33:59.166Z,21.3
2022-08-22T20:36:27.680Z,21.2
2022-08-22T20:40:25.909Z,21.2
2022-08-22T20:44:18.808Z,21
2022-08-22T20:46:22.746Z,21
2022-08-22T20:48:29.492Z,20.9
2022-08-22T20:54:41.257Z,20.8
2022-08-22T20:56:52.839Z,20.7
2022-08-22T20:58:49.134Z,20.7
2022-08-22T21:00:53.099Z,20.6
2022-08-22T21:02:59.827Z,20.5
2022-08-22T21:09:29.651Z,20.4
2022-08-22T21:11:33.611Z,20.3
2022-08-22T21:15:44.316Z,20.3
2022-08-22T21:17:48.268Z,20.3
2022-08-22T21:19:52.205Z,20.3
2022-08-22T21:21:56.139Z,20.2
2022-08-22T21:24:01.177Z,20.2
2022-08-22T21:26:04.007Z,20.2
2022-08-22T21:28:07.954Z,20.1
2022-08-22T21:30:14.721Z,20
2022-08-22T21:32:18.647Z,20
2022-08-22T21:34:22.618Z,20
2022-08-22T21:36:26.535Z,19.9
2022-08-22T21:38:30.473Z,19.9
2022-08-22T21:40:34.431Z,19.8
2022-08-22T21:42:38.370Z,19.7
2022-08-22T21:44:45.260Z,19.6
2022-08-22T21:46:49.089Z,19.6
2022-08-22T21:48:53.046Z,19.6
2022-08-22T21:50:56.986Z,19.6
2022-08-22T21:53:00.932Z,19.5
2022-08-22T21:55:04.863Z,19.5
2022-08-22T21:57:08.976Z,19.5
2022-08-22T21:59:15.600Z,19.5
2022-08-22T22:01:19.569Z,19.4
2022-08-22T22:03:23.486Z,19.3
2022-08-22T22:04:26.874Z,19.2
2022-08-22T22:06:30.832Z,19.1
2022-08-22T22:08:34.769Z,19.1
2022-08-22T22:10:38.723Z,19
2022-08-22T22:12:45.525Z,19
2022-08-22T22:14:49.450Z,19
2022-08-22T22:16:53.408Z,19.1
2022-08-22T22:18:57.349Z,19
2022-08-22T22:21:01.281Z,19
2022-08-22T22:25:39.825Z,18.8
2022-08-22T22:27:17.182Z,18.8
2022-08-22T22:29:19.930Z,18.7
2022-08-22T22:31:23.899Z,18.9
2022-08-22T22:33:27.829Z,18.9
2022-08-22T22:35:31.762Z,18.9
2022-08-22T22:37:35.713Z,18.8
2022-08-22T22:39:39.754Z,18.8
2022-08-22T22:41:46.463Z,18.7
2022-08-22T22:43:50.406Z,18.7
2022-08-22T22:45:54.371Z,18.8
2022-08-22T22:47:58.555Z,18.8
2022-08-22T22:50:02.289Z,18.7
2022-08-22T22:52:06.223Z,18.8
2022-08-22T22:54:11.237Z,18.7
2022-08-22T22:56:16.974Z,18.6
2022-08-22T22:58:20.915Z,18.6
2022-08-22T23:00:24.910Z,18.6
2022-08-22T23:01:28.236Z,18.6
2022-08-22T23:03:32.209Z,18.5
2022-08-22T23:07:40.144Z,18.3
2022-08-22T23:09:46.903Z,18.2
2022-08-22T23:11:50.878Z,18.2
2022-08-22T23:13:54.798Z,18.1
2022-08-22T23:15:58.776Z,18.2
2022-08-22T23:20:06.729Z,18.2
2022-08-22T23:22:10.658Z,18.3
2022-08-22T23:26:21.409Z,18
2022-08-22T23:30:29.332Z,18.1
2022-08-22T23:32:33.268Z,18.1
2022-08-22T23:36:41.185Z,18.1
2022-08-22T23:38:47.995Z,17.9
2022-08-22T23:40:51.918Z,18
2022-08-22T23:44:59.871Z,18
2022-08-22T23:49:07.793Z,17.8
2022-08-22T23:51:11.724Z,17.7
2022-08-22T23:53:18.520Z,17.7
2022-08-22T23:55:22.517Z,17.7
2022-08-22T23:57:27.655Z,17.7
2022-08-22T23:58:29.847Z,17.7
